createdAt,value
2022-10-05T00:01:46.820Z,101023.89
2022-10-05T00:04:52.621Z,101019.23
2022-10-05T00:07:56.983Z,101020.55
2022-10-05T00:10:59.811Z,101018.64
2022-10-05T00:14:07.358Z,101016.77
2022-10-05T00:17:13.827Z,101008.30
2022-10-05T00:20:22.561Z,100996.42
2022-10-05T00:23:27.651Z,100985.27
2022-10-05T00:26:32.915Z,100981.55
2022-10-05T00:29:35.490Z,100968.77
2022-10-05T00:32:38.306Z,100963.61
2022-10-05T00:35:41.211Z,100983.34
2022-10-05T00:38:44.258Z,100982.26
2022-10-05T00:41:55.283Z,100984.06
2022-10-05T00:45:01.929Z,100982.88
2022-10-05T00:48:12.526Z,100983.55
2022-10-05T00:51:20.967Z,100977.84
2022-10-05T00:54:29.437Z,100970.02
2022-10-05T00:57:37.583Z,100969.52
2022-10-05T01:00:43.834Z,100966.70
2022-10-05T01:03:50.836Z,100967.92
2022-10-05T01:06:59.570Z,100970.80
2022-10-05T01:10:06.030Z,100970.67
2022-10-05T01:13:15.106Z,100966.66
2022-10-05T01:16:22.067Z,100969.21
2022-10-05T01:19:39.371Z,100973.55
2022-10-05T01:22:51.825Z,100979.27
2022-10-05T01:26:03.521Z,100975.30
2022-10-05T01:29:08.778Z,100967.25
2022-10-05T01:32:14.873Z,100961.58
2022-10-05T01:35:23.983Z,100957.98
2022-10-05T01:38:33.882Z,100962.52
2022-10-05T01:41:40.787Z,100965.84
2022-10-05T01:44:47.380Z,100963.19
2022-10-05T01:47:53.340Z,100963.69
2022-10-05T01:51:00.797Z,100950.07
2022-10-05T01:54:10.005Z,100944.61
2022-10-05T01:57:15.944Z,100940.84
2022-10-05T02:00:19.485Z,100939.89
2022-10-05T02:03:24.963Z,100940.02
2022-10-05T02:06:30.255Z,100937.40
2022-10-05T02:09:34.405Z,100934.92
2022-10-05T02:12:41.039Z,100927.63
2022-10-05T02:15:45.557Z,100919.92
2022-10-05T02:18:50.472Z,100921.97
2022-10-05T02:21:55.392Z,100925.54
2022-10-05T02:25:02.864Z,100925.20
2022-10-05T02:28:09.655Z,100934.30
2022-10-05T02:31:15.070Z,100950.41
2022-10-05T02:34:22.556Z,100951.89
2022-10-05T02:37:28.793Z,100944.21
2022-10-05T02:40:37.814Z,100947.10
2022-10-05T02:43:45.781Z,100941.35
2022-10-05T02:46:57.156Z,100935.21
2022-10-05T02:50:06.872Z,100929.48
2022-10-05T02:53:17.583Z,100927.64
2022-10-05T02:56:26.372Z,100913.16
2022-10-05T02:59:33.682Z,100907.80
2022-10-05T03:02:41.963Z,100903.69
2022-10-05T03:05:48.059Z,100906.30
2022-10-05T03:08:57.638Z,100908.16
2022-10-05T03:12:07.549Z,100914.59
2022-10-05T03:15:15.977Z,100927.17
2022-10-05T03:18:28.545Z,100935.30
2022-10-05T03:21:39.688Z,100932.52
2022-10-05T03:24:52.107Z,100926.45
2022-10-05T03:27:58.468Z,100922.50
2022-10-05T03:31:03.365Z,100922.33
2022-10-05T03:34:10.582Z,100920.30
2022-10-05T03:37:16.462Z,100915.52
2022-10-05T03:40:24.900Z,100913.37
2022-10-05T03:43:41.445Z,100912.91
2022-10-05T03:46:53.445Z,100914.01
2022-10-05T03:50:06.047Z,100918.66
2022-10-05T03:53:14.924Z,100917.30
2022-10-05T03:56:23.994Z,100924.09
2022-10-05T03:59:32.373Z,100918.65
2022-10-05T04:02:40.139Z,100905.51
2022-10-05T04:05:45.957Z,100905.35
2022-10-05T04:08:52.192Z,100908.65
2022-10-05T04:12:02.006Z,100905.04
2022-10-05T04:15:17.993Z,100906.44
2022-10-05T04:18:25.198Z,100909.34
2022-10-05T04:21:29.921Z,100912.66
2022-10-05T04:24:36.398Z,100919.04
2022-10-05T04:27:41.785Z,100918.79
2022-10-05T04:30:46.156Z,100921.86
2022-10-05T04:33:54.960Z,100921.55
2022-10-05T04:37:02.458Z,100915.95
2022-10-05T04:40:15.077Z,100916.68
2022-10-05T04:43:20.238Z,100916.87
2022-10-05T04:46:29.497Z,100912.00
2022-10-05T04:49:41.380Z,100915.40
2022-10-05T04:52:51.682Z,100914.02
2022-10-05T04:55:58.098Z,100910.33
2022-10-05T04:59:16.836Z,100903.72
2022-10-05T05:02:23.637Z,100915.48
2022-10-05T05:05:31.927Z,100910.16
2022-10-05T05:08:41.898Z,100900.54
2022-10-05T05:11:52.110Z,100898.09
2022-10-05T05:15:06.914Z,100893.34
2022-10-05T05:18:34.284Z,100895.57
2022-10-05T05:21:42.965Z,100895.66
2022-10-05T05:24:52.879Z,100896.23
2022-10-05T05:27:57.758Z,100897.61
2022-10-05T05:31:06.196Z,100902.33
2022-10-05T05:34:17.611Z,100903.48
2022-10-05T05:37:25.824Z,100902.02
2022-10-05T05:40:32.513Z,100904.31
2022-10-05T05:43:42.803Z,100904.72
2022-10-05T05:47:03.383Z,100898.50
2022-10-05T05:50:19.845Z,100899.73
2022-10-05T05:53:24.980Z,100900.73
2022-10-05T05:56:32.298Z,100896.27
2022-10-05T05:59:40.041Z,100900.39
2022-10-05T06:02:45.730Z,100897.98
2022-10-05T06:05:51.618Z,100899.23
2022-10-05T06:08:56.660Z,100900.31
2022-10-05T06:12:28.860Z,100899.94
2022-10-05T06:15:34.508Z,100903.20
2022-10-05T06:18:39.462Z,100897.71
2022-10-05T06:21:44.439Z,100895.10
2022-10-05T06:24:51.601Z,100893.70
2022-10-05T06:28:08.930Z,100897.73
2022-10-05T06:31:19.713Z,100891.88
2022-10-05T06:34:34.869Z,100892.47
2022-10-05T06:37:46.434Z,100888.54
2022-10-05T06:40:57.385Z,100881.41
2022-10-05T06:44:02.137Z,100880.24
2022-10-05T06:47:22.264Z,100875.02
2022-10-05T06:50:52.740Z,100879.63
2022-10-05T06:54:27.438Z,100873.23
2022-10-05T06:57:40.985Z,100873.84
2022-10-05T07:00:49.216Z,100875.21
2022-10-05T07:03:59.308Z,100877.24
2022-10-05T07:07:03.092Z,100878.96
2022-10-05T07:10:16.685Z,100876.43
2022-10-05T07:13:37.771Z,100871.77
2022-10-05T07:16:52.590Z,100870.09
2022-10-05T07:20:00.400Z,100872.81
2022-10-05T07:23:19.457Z,100869.67
2022-10-05T07:26:27.462Z,100872.86
2022-10-05T07:29:34.159Z,100882.90
2022-10-05T07:32:39.422Z,100885.60
2022-10-05T07:36:06.729Z,100884.92
2022-10-05T07:39:13.916Z,100892.25
2022-10-05T07:42:22.392Z,100892.02
2022-10-05T07:45:28.277Z,100889.59
2022-10-05T07:48:37.060Z,100884.42
2022-10-05T07:51:41.358Z,100882.21
2022-10-05T07:54:53.490Z,100874.40
2022-10-05T07:58:02.171Z,100877.30
2022-10-05T08:01:11.484Z,100883.75
2022-10-05T08:04:17.602Z,100879.27
2022-10-05T08:07:20.230Z,100874.05
2022-10-05T08:10:31.198Z,100877.33
2022-10-05T08:13:39.069Z,100883.58
2022-10-05T08:16:42.047Z,100880.25
2022-10-05T08:19:47.356Z,100879.95
2022-10-05T08:22:54.000Z,100877.91
2022-10-05T08:26:12.564Z,100879.23
2022-10-05T08:29:18.906Z,100877.83
2022-10-05T08:32:24.052Z,100886.33
2022-10-05T08:35:33.452Z,100893.70
2022-10-05T08:38:36.135Z,100904.70
2022-10-05T08:41:55.957Z,100905.84
2022-10-05T08:45:20.941Z,100904.77
2022-10-05T08:48:33.622Z,100900.10
2022-10-05T08:51:53.380Z,100893.77
2022-10-05T08:55:13.998Z,100892.77
2022-10-05T08:58:34.743Z,100889.56
2022-10-05T09:01:46.163Z,100876.15
2022-10-05T09:04:58.745Z,100865.02
2022-10-05T09:08:12.964Z,100865.81
2022-10-05T09:11:21.209Z,100868.21
2022-10-05T09:14:38.683Z,100876.36
2022-10-05T09:17:51.145Z,100873.91
2022-10-05T09:20:54.666Z,100874.08
2022-10-05T09:24:07.952Z,100865.21
2022-10-05T09:27:13.907Z,100868.13
2022-10-05T09:30:20.099Z,100870.06
2022-10-05T09:33:55.152Z,100873.40
2022-10-05T09:37:17.206Z,100864.57
2022-10-05T09:40:35.921Z,100859.52
2022-10-05T09:43:55.119Z,100850.33
2022-10-05T09:47:11.770Z,100833.66
2022-10-05T09:50:27.668Z,100832.58
2022-10-05T09:53:44.187Z,100832.03
2022-10-05T09:57:03.443Z,100838.73
2022-10-05T10:00:23.539Z,100845.61
2022-10-05T10:03:42.506Z,100836.98
2022-10-05T10:06:54.808Z,100840.52
2022-10-05T10:10:12.897Z,100839.47
2022-10-05T10:13:23.090Z,100831.36
2022-10-05T10:16:32.272Z,100843.92
2022-10-05T10:19:51.900Z,100842.03
2022-10-05T10:23:10.400Z,100837.02
2022-10-05T10:26:34.560Z,100839.67
2022-10-05T10:29:47.834Z,100846.32
2022-10-05T10:33:02.551Z,100840.66
2022-10-05T10:36:12.975Z,100843.64
2022-10-05T10:39:19.857Z,100843.09
2022-10-05T10:42:33.434Z,100841.89
2022-10-05T10:45:46.322Z,100836.09
2022-10-05T10:48:57.249Z,100827.26
2022-10-05T10:52:10.061Z,100821.85
2022-10-05T10:55:22.714Z,100819.14
2022-10-05T10:58:48.770Z,100812.04
2022-10-05T11:02:06.084Z,100810.73
2022-10-05T11:05:15.640Z,100812.27
2022-10-05T11:08:37.318Z,100822.89
2022-10-05T11:11:58.178Z,100815.88
2022-10-05T11:15:06.423Z,100817.88
2022-10-05T11:18:15.391Z,100822.02
2022-10-05T11:21:24.996Z,100831.21
2022-10-05T11:24:47.963Z,100837.30
2022-10-05T11:27:59.279Z,100835.45
2022-10-05T11:31:24.907Z,100847.39
2022-10-05T11:34:43.193Z,100842.80
2022-10-05T11:38:03.511Z,100831.36
2022-10-05T11:41:17.569Z,100825.01
2022-10-05T11:44:34.201Z,100824.55
2022-10-05T11:47:41.079Z,100821.59
2022-10-05T11:50:48.534Z,100815.73
2022-10-05T11:53:57.118Z,100806.70
2022-10-05T11:57:10.640Z,100801.69
2022-10-05T12:00:15.999Z,100794.84
2022-10-05T12:03:28.550Z,100794.36
2022-10-05T12:06:38.278Z,100795.85
2022-10-05T12:10:04.931Z,100785.82
2022-10-05T12:13:18.672Z,100770.77
2022-10-05T12:16:24.303Z,100766.61
2022-10-05T12:19:31.398Z,100766.70
2022-10-05T12:22:36.092Z,100764.77
2022-10-05T12:25:41.324Z,100762.44
2022-10-05T12:28:46.954Z,100755.51
2022-10-05T12:31:55.488Z,100761.81
2022-10-05T12:35:02.608Z,100758.84
2022-10-05T12:38:11.368Z,100757.80
2022-10-05T12:41:18.120Z,100759.33
2022-10-05T12:44:25.867Z,100752.88
2022-10-05T12:47:32.423Z,100746.77
2022-10-05T12:50:36.102Z,100742.20
2022-10-05T12:53:47.837Z,100742.48
2022-10-05T12:56:53.293Z,100745.10
2022-10-05T13:00:00.915Z,100745.55
2022-10-05T13:03:08.844Z,100741.04
2022-10-05T13:06:17.228Z,100732.75
2022-10-05T13:09:23.673Z,100734.10
2022-10-05T13:12:35.477Z,100721.52
2022-10-05T13:15:43.882Z,100718.12
2022-10-05T13:18:58.280Z,100712.94
2022-10-05T13:22:04.876Z,100714.59
2022-10-05T13:25:17.235Z,100710.07
2022-10-05T13:28:21.875Z,100706.92
2022-10-05T13:31:27.269Z,100707.08
2022-10-05T13:34:34.579Z,100708.32
2022-10-05T13:37:40.745Z,100703.28
2022-10-05T13:40:45.857Z,100695.42
2022-10-05T13:43:52.519Z,100682.91
2022-10-05T13:47:00.501Z,100680.80
2022-10-05T13:50:05.678Z,100676.45
2022-10-05T13:53:12.362Z,100677.39
2022-10-05T13:56:17.876Z,100676.66
2022-10-05T13:59:24.993Z,100667.59
2022-10-05T14:02:29.273Z,100667.84
2022-10-05T14:05:32.037Z,100667.44
2022-10-05T14:08:35.790Z,100662.63
2022-10-05T14:11:47.909Z,100661.25
2022-10-05T14:14:52.926Z,100661.48
2022-10-05T14:17:56.176Z,100662.89
2022-10-05T14:21:03.251Z,100665.30
2022-10-05T14:24:32.033Z,100666.20
2022-10-05T14:27:49.597Z,100666.86
2022-10-05T14:30:59.200Z,100655.79
2022-10-05T14:34:29.328Z,100653.43
2022-10-05T14:37:42.739Z,100655.58
2022-10-05T14:40:45.656Z,100656.07
2022-10-05T14:43:52.873Z,100653.48
2022-10-05T14:46:58.244Z,100647.56
2022-10-05T14:50:13.383Z,100644.20
2022-10-05T14:53:17.154Z,100642.79
2022-10-05T14:56:28.274Z,100639.65
2022-10-05T14:59:53.886Z,100641.25
2022-10-05T15:03:08.621Z,100637.54
2022-10-05T15:06:15.546Z,100635.05
2022-10-05T15:09:32.023Z,100630.92
2022-10-05T15:12:37.640Z,100628.91
2022-10-05T15:15:44.248Z,100629.41
2022-10-05T15:18:50.988Z,100624.25
2022-10-05T15:22:00.371Z,100622.15
2022-10-05T15:25:12.786Z,100621.61
2022-10-05T15:28:20.778Z,100617.45
2022-10-05T15:31:33.258Z,100617.77
2022-10-05T15:34:39.862Z,100616.91
2022-10-05T15:37:43.543Z,100613.83
2022-10-05T15:40:49.086Z,100616.56
2022-10-05T15:43:58.207Z,100610.86
2022-10-05T15:47:03.636Z,100604.74
2022-10-05T15:50:14.316Z,100605.30
2022-10-05T15:53:20.742Z,100604.08
2022-10-05T15:56:26.655Z,100604.71
2022-10-05T15:59:35.012Z,100605.46
2022-10-05T16:02:41.051Z,100606.27
2022-10-05T16:06:06.137Z,100607.73
2022-10-05T16:09:13.983Z,100604.61
2022-10-05T16:12:22.006Z,100609.54
2022-10-05T16:15:27.971Z,100606.79
2022-10-05T16:18:40.404Z,100602.80
2022-10-05T16:21:50.934Z,100602.77
2022-10-05T16:25:01.810Z,100603.86
2022-10-05T16:28:11.306Z,100604.89
2022-10-05T16:31:22.909Z,100603.48
2022-10-05T16:34:34.197Z,100602.46
2022-10-05T16:37:41.536Z,100604.35
2022-10-05T16:40:50.046Z,100603.59
2022-10-05T16:43:57.681Z,100603.42
2022-10-05T16:47:04.040Z,100611.30
2022-10-05T16:50:16.820Z,100610.30
2022-10-05T16:53:22.066Z,100614.70
2022-10-05T16:56:27.554Z,100616.48
2022-10-05T16:59:44.447Z,100622.41
2022-10-05T17:02:54.259Z,100623.77
2022-10-05T17:06:07.666Z,100623.95
2022-10-05T17:09:22.921Z,100622.07
2022-10-05T17:12:33.172Z,100623.33
2022-10-05T17:15:41.116Z,100622.67
2022-10-05T17:19:14.546Z,100627.08
2022-10-05T17:22:23.697Z,100631.16
2022-10-05T17:25:34.177Z,100629.15
2022-10-05T17:28:39.158Z,100632.05
2022-10-05T17:32:01.175Z,100633.11
2022-10-05T17:35:18.520Z,100633.73
2022-10-05T17:38:23.254Z,100632.23
2022-10-05T17:41:27.604Z,100629.59
2022-10-05T17:44:30.153Z,100630.13
2022-10-05T17:47:49.711Z,100627.65
2022-10-05T17:51:12.839Z,100622.48
2022-10-05T17:54:37.982Z,100621.67
2022-10-05T17:57:41.318Z,100618.39
2022-10-05T18:01:13.527Z,100615.80
2022-10-05T18:04:25.811Z,100617.39
2022-10-05T18:07:28.666Z,100613.66
2022-10-05T18:10:31.938Z,100615.02
2022-10-05T18:13:40.932Z,100611.73
2022-10-05T18:16:59.973Z,100605.63
2022-10-05T18:20:12.620Z,100610.45
2022-10-05T18:23:35.159Z,100605.76
2022-10-05T18:26:42.952Z,100603.41
2022-10-05T18:30:04.770Z,100603.23
2022-10-05T18:33:20.401Z,100599.61
2022-10-05T18:36:37.908Z,100602.27
2022-10-05T18:39:45.496Z,100607.89
2022-10-05T18:42:53.355Z,100611.52
2022-10-05T18:46:03.534Z,100611.12
2022-10-05T18:49:18.996Z,100610.21
2022-10-05T18:52:26.902Z,100615.03
2022-10-05T18:55:33.059Z,100614.16
2022-10-05T18:58:41.358Z,100618.48
2022-10-05T19:01:51.574Z,100621.77
2022-10-05T19:05:04.618Z,100622.41
2022-10-05T19:08:10.468Z,100624.21
2022-10-05T19:11:17.708Z,100633.37
2022-10-05T19:14:24.659Z,100628.73
2022-10-05T19:17:31.838Z,100628.30
2022-10-05T19:20:37.405Z,100628.48
2022-10-05T19:23:51.219Z,100630.82
2022-10-05T19:27:00.615Z,100631.73
2022-10-05T19:30:11.477Z,100635.15
2022-10-05T19:33:25.350Z,100633.95
2022-10-05T19:36:40.536Z,100635.69
2022-10-05T19:39:47.412Z,100635.56
2022-10-05T19:42:59.477Z,100632.55
2022-10-05T19:46:19.203Z,100634.14
2022-10-05T19:49:42.452Z,100641.58
2022-10-05T19:52:49.790Z,100642.83
2022-10-05T19:55:54.788Z,100646.23
2022-10-05T19:58:59.000Z,100655.89
2022-10-05T20:02:03.596Z,100657.23
2022-10-05T20:05:07.286Z,100658.71
2022-10-05T20:08:14.693Z,100662.60
2022-10-05T20:11:18.128Z,100665.73
2022-10-05T20:14:28.252Z,100670.53
2022-10-05T20:17:49.359Z,100670.44
2022-10-05T20:20:52.015Z,100675.02
2022-10-05T20:24:06.408Z,100677.87
2022-10-05T20:27:28.901Z,100679.03
2022-10-05T20:30:33.334Z,100683.37
2022-10-05T20:33:35.958Z,100687.57
2022-10-05T20:36:39.848Z,100686.15
2022-10-05T20:39:42.488Z,100686.23
2022-10-05T20:42:45.181Z,100687.73
2022-10-05T20:45:47.786Z,100685.47
2022-10-05T20:48:51.973Z,100681.75
2022-10-05T20:51:55.249Z,100683.17
2022-10-05T20:54:58.314Z,100685.31
2022-10-05T20:58:00.675Z,100686.52
2022-10-05T21:01:15.872Z,100681.33
2022-10-05T21:04:19.538Z,100679.52
2022-10-05T21:07:22.803Z,100684.93
2022-10-05T21:10:25.489Z,100685.45
2022-10-05T21:13:28.194Z,100683.18
2022-10-05T21:16:30.985Z,100692.11
2022-10-05T21:19:37.711Z,100690.33
2022-10-05T21:22:40.460Z,100692.90
2022-10-05T21:25:44.848Z,100696.96
2022-10-05T21:28:47.318Z,100698.78
2022-10-05T21:31:50.104Z,100701.30
2022-10-05T21:34:52.609Z,100705.23
2022-10-05T21:37:55.381Z,100705.59
2022-10-05T21:40:57.985Z,100709.64
2022-10-05T21:44:00.623Z,100711.66
2022-10-05T21:47:03.691Z,100709.73
2022-10-05T21:50:08.055Z,100708.99
2022-10-05T21:53:13.180Z,100711.86
2022-10-05T21:56:17.503Z,100711.89
2022-10-05T21:59:21.457Z,100707.64
2022-10-05T22:02:24.017Z,100712.82
2022-10-05T22:05:26.696Z,100711.79
2022-10-05T22:08:30.794Z,100714.77
2022-10-05T22:11:33.730Z,100716.35
2022-10-05T22:14:36.235Z,100711.67
2022-10-05T22:17:39.856Z,100709.10
2022-10-05T22:20:42.478Z,100710.70
2022-10-05T22:23:45.812Z,100715.67
2022-10-05T22:26:50.810Z,100713.02
2022-10-05T22:29:54.033Z,100716.42
2022-10-05T22:32:56.601Z,100717.56
2022-10-05T22:35:59.936Z,100717.98
2022-10-05T22:39:02.554Z,100721.42
2022-10-05T22:42:05.472Z,100724.85
2022-10-05T22:45:08.866Z,100725.86
2022-10-05T22:48:11.554Z,100728.09
2022-10-05T22:51:14.136Z,100729.27
2022-10-05T22:54:16.745Z,100727.61
2022-10-05T22:57:19.394Z,100724.98
2022-10-05T23:00:27.582Z,100729.31
2022-10-05T23:03:30.620Z,100725.90
2022-10-05T23:06:33.265Z,100725.79
2022-10-05T23:09:35.824Z,100728.77
2022-10-05T23:12:38.382Z,100731.13
2022-10-05T23:15:41.897Z,100729.90
2022-10-05T23:18:46.241Z,100729.42
2022-10-05T23:21:48.850Z,100730.43
2022-10-05T23:24:51.656Z,100726.23
2022-10-05T23:27:54.131Z,100732.13
2022-10-05T23:31:00.475Z,100733.83
2022-10-05T23:34:03.229Z,100735.23
2022-10-05T23:37:08.870Z,100735.95
2022-10-05T23:40:14.912Z,100734.39
2022-10-05T23:43:17.769Z,100742.58
2022-10-05T23:46:20.563Z,100747.52
2022-10-05T23:49:23.357Z,100748.89
2022-10-05T23:52:25.924Z,100749.20
2022-10-05T23:55:28.396Z,100748.67
2022-10-05T23:58:31.532Z,100753.14
